createdAt,value
2022-07-26T00:02:18.459Z,2.00
2022-07-26T00:04:46.534Z,2.28
2022-07-26T00:07:14.396Z,2.33
2022-07-26T00:09:47.860Z,1.55
2022-07-26T00:12:16.843Z,1.80
2022-07-26T00:14:44.698Z,2.25
2022-07-26T00:17:13.868Z,1.88
2022-07-26T00:19:41.756Z,2.17
2022-07-26T00:22:27.011Z,1.63
2022-07-26T00:24:54.829Z,1.40
2022-07-26T00:27:22.678Z,1.92
2022-07-26T00:29:50.641Z,2.30
2022-07-26T00:32:19.958Z,2.33
2022-07-26T00:34:47.638Z,1.73
2022-07-26T00:37:20.142Z,1.85
2022-07-26T00:39:48.505Z,1.77
2022-07-26T00:42:16.844Z,1.83
2022-07-26T00:44:46.914Z,1.60
2022-07-26T00:47:15.764Z,1.50
2022-07-26T00:49:45.912Z,1.90
2022-07-26T00:52:13.953Z,1.70
2022-07-26T00:54:45.736Z,1.77
2022-07-26T00:57:15.082Z,1.83
2022-07-26T00:59:43.731Z,1.88
2022-07-26T01:02:12.014Z,2.10
2022-07-26T01:04:40.598Z,1.67
2022-07-26T01:07:15.538Z,1.40
2022-07-26T01:09:44.098Z,1.58
2022-07-26T01:12:12.786Z,1.63
2022-07-26T01:14:43.797Z,1.85
2022-07-26T01:17:11.888Z,1.52
2022-07-26T01:19:39.768Z,1.88
2022-07-26T01:22:14.020Z,1.80
2022-07-26T01:24:42.629Z,1.75
2022-07-26T01:27:10.449Z,1.80
2022-07-26T01:29:38.153Z,1.50
2022-07-26T01:32:07.125Z,1.60
2022-07-26T01:34:34.917Z,1.52
2022-07-26T01:37:03.273Z,1.35
2022-07-26T01:39:32.282Z,1.45
2022-07-26T01:42:00.420Z,1.80
2022-07-26T01:44:28.296Z,1.50
2022-07-26T01:46:56.133Z,1.48
2022-07-26T01:49:23.921Z,1.70
2022-07-26T01:51:51.714Z,1.42
2022-07-26T01:54:22.492Z,1.60
2022-07-26T01:56:53.660Z,1.52
2022-07-26T01:59:21.661Z,1.55
2022-07-26T02:01:49.680Z,1.38
2022-07-26T02:04:31.664Z,1.45
2022-07-26T02:06:59.632Z,1.42
2022-07-26T02:09:27.902Z,1.90
2022-07-26T02:12:01.102Z,1.55
2022-07-26T02:14:29.001Z,1.52
2022-07-26T02:17:00.085Z,1.58
2022-07-26T02:19:29.874Z,1.58
2022-07-26T02:21:58.446Z,1.20
2022-07-26T02:24:29.771Z,1.50
2022-07-26T02:26:58.422Z,1.58
2022-07-26T02:29:29.369Z,1.27
2022-07-26T02:31:57.904Z,1.33
2022-07-26T02:34:25.935Z,1.33
2022-07-26T02:36:53.770Z,1.50
2022-07-26T02:39:22.001Z,1.20
2022-07-26T02:41:50.309Z,1.00
2022-07-26T02:44:18.233Z,1.55
2022-07-26T02:46:47.709Z,1.48
2022-07-26T02:49:15.810Z,1.27
2022-07-26T02:51:43.560Z,1.05
2022-07-26T02:54:12.116Z,1.27
2022-07-26T02:56:44.667Z,1.10
2022-07-26T02:59:12.801Z,1.33
2022-07-26T03:01:40.827Z,1.20
2022-07-26T03:04:10.233Z,1.30
2022-07-26T03:06:38.589Z,1.70
2022-07-26T03:09:06.417Z,1.20
2022-07-26T03:11:34.147Z,1.30
2022-07-26T03:14:02.136Z,1.40
2022-07-26T03:16:30.438Z,1.20
2022-07-26T03:18:58.497Z,1.27
2022-07-26T03:21:27.843Z,1.42
2022-07-26T03:23:55.672Z,2.03
2022-07-26T03:26:23.595Z,1.42
2022-07-26T03:28:51.485Z,1.42
2022-07-26T03:31:19.854Z,1.27
2022-07-26T03:33:47.777Z,1.30
2022-07-26T03:36:16.369Z,1.42
2022-07-26T03:38:45.393Z,1.30
2022-07-26T03:41:13.614Z,1.73
2022-07-26T03:43:42.156Z,1.27
2022-07-26T03:46:10.280Z,1.00
2022-07-26T03:48:38.349Z,1.67
2022-07-26T03:51:06.501Z,1.30
2022-07-26T03:53:34.725Z,1.50
2022-07-26T03:56:22.212Z,1.10
2022-07-26T03:58:50.018Z,1.40
2022-07-26T04:01:18.021Z,1.30
2022-07-26T04:03:47.882Z,1.15
2022-07-26T04:06:16.547Z,1.58
2022-07-26T04:08:45.808Z,1.10
2022-07-26T04:11:15.253Z,1.33
2022-07-26T04:13:43.336Z,1.10
2022-07-26T04:16:11.228Z,1.20
2022-07-26T04:18:39.644Z,1.35
2022-07-26T04:21:07.679Z,1.27
2022-07-26T04:23:35.833Z,1.13
2022-07-26T04:26:03.702Z,1.67
2022-07-26T04:28:33.334Z,1.67
2022-07-26T04:31:02.821Z,1.35
2022-07-26T04:33:30.848Z,1.08
2022-07-26T04:35:58.773Z,1.42
2022-07-26T04:38:27.251Z,1.27
2022-07-26T04:40:56.082Z,1.33
2022-07-26T04:43:24.025Z,1.33
2022-07-26T04:45:53.667Z,1.30
2022-07-26T04:48:21.677Z,1.08
2022-07-26T04:50:49.889Z,1.17
2022-07-26T04:53:17.878Z,1.30
2022-07-26T04:55:46.057Z,1.33
2022-07-26T04:58:14.001Z,0.90
2022-07-26T05:01:08.349Z,1.20
2022-07-26T05:03:32.019Z,1.20
2022-07-26T05:05:59.822Z,1.15
2022-07-26T05:08:27.560Z,1.27
2022-07-26T05:10:56.466Z,1.10
2022-07-26T05:13:29.729Z,1.10
2022-07-26T05:15:59.304Z,1.13
2022-07-26T05:18:27.391Z,1.33
2022-07-26T05:20:58.443Z,1.20
2022-07-26T05:23:26.229Z,1.30
2022-07-26T05:25:53.988Z,1.10
2022-07-26T05:28:21.869Z,1.20
2022-07-26T05:30:49.826Z,1.00
2022-07-26T05:33:17.728Z,1.13
2022-07-26T05:35:45.558Z,1.10
2022-07-26T05:38:14.759Z,1.20
2022-07-26T05:40:47.236Z,0.93
2022-07-26T05:43:18.182Z,1.02
2022-07-26T05:45:46.204Z,1.20
2022-07-26T05:48:14.124Z,1.40
2022-07-26T05:50:42.050Z,1.08
2022-07-26T05:53:10.385Z,1.38
2022-07-26T05:55:39.884Z,1.27
2022-07-26T05:58:08.347Z,1.17
2022-07-26T06:00:36.653Z,1.30
2022-07-26T06:03:21.987Z,1.05
2022-07-26T06:05:51.788Z,1.10
2022-07-26T06:08:20.892Z,1.00
2022-07-26T06:10:51.407Z,0.93
2022-07-26T06:13:19.910Z,1.40
2022-07-26T06:15:48.123Z,1.00
2022-07-26T06:18:16.049Z,1.17
2022-07-26T06:20:47.606Z,1.60
2022-07-26T06:23:16.141Z,1.20
2022-07-26T06:25:43.915Z,1.75
2022-07-26T06:28:13.308Z,1.52
2022-07-26T06:30:41.216Z,1.00
2022-07-26T06:33:09.686Z,1.35
2022-07-26T06:35:39.175Z,1.00
2022-07-26T06:38:08.318Z,1.30
2022-07-26T06:40:36.920Z,1.10
2022-07-26T06:43:05.928Z,1.00
2022-07-26T06:45:35.385Z,1.20
2022-07-26T06:48:03.196Z,1.48
2022-07-26T06:50:31.228Z,0.85
2022-07-26T06:52:59.127Z,1.10
2022-07-26T06:55:27.289Z,1.13
2022-07-26T06:57:55.206Z,1.55
2022-07-26T07:00:23.709Z,1.42
2022-07-26T07:02:52.857Z,0.88
2022-07-26T07:05:20.771Z,0.82
2022-07-26T07:07:48.766Z,0.90
2022-07-26T07:10:16.913Z,0.98
2022-07-26T07:12:47.069Z,0.88
2022-07-26T07:15:14.898Z,0.82
2022-07-26T07:17:42.777Z,0.80
2022-07-26T07:20:13.417Z,0.73
2022-07-26T07:22:41.367Z,0.63
2022-07-26T07:25:09.940Z,0.80
2022-07-26T07:27:37.786Z,0.57
2022-07-26T07:30:08.525Z,0.68
2022-07-26T07:32:37.113Z,1.00
2022-07-26T07:35:12.689Z,1.00
2022-07-26T07:37:53.588Z,0.55
2022-07-26T07:40:22.196Z,1.17
2022-07-26T07:42:50.715Z,0.70
2022-07-26T07:45:18.842Z,0.73
2022-07-26T07:47:46.713Z,0.70
2022-07-26T07:50:14.490Z,0.90
2022-07-26T07:52:43.997Z,0.80
2022-07-26T07:55:36.679Z,0.77
2022-07-26T07:58:00.355Z,0.73
2022-07-26T08:00:28.130Z,0.93
2022-07-26T08:02:56.131Z,0.70
2022-07-26T08:05:23.878Z,0.63
2022-07-26T08:07:53.987Z,0.90
2022-07-26T08:10:22.132Z,0.70
2022-07-26T08:12:52.113Z,0.63
2022-07-26T08:15:21.919Z,0.70
2022-07-26T08:17:54.699Z,0.73
2022-07-26T08:20:25.030Z,0.70
2022-07-26T08:22:54.643Z,0.75
2022-07-26T08:25:22.869Z,0.70
2022-07-26T08:28:03.189Z,0.65
2022-07-26T08:30:31.595Z,0.70
2022-07-26T08:32:59.624Z,0.52
2022-07-26T08:35:29.514Z,0.80
2022-07-26T08:37:59.406Z,0.65
2022-07-26T08:40:27.812Z,0.50
2022-07-26T08:42:57.794Z,0.80
2022-07-26T08:45:27.940Z,0.70
2022-07-26T08:48:16.654Z,0.88
2022-07-26T08:50:44.703Z,0.82
2022-07-26T08:53:14.549Z,0.73
2022-07-26T08:56:06.069Z,0.50
2022-07-26T08:58:32.966Z,0.68
2022-07-26T09:01:09.447Z,0.60
2022-07-26T09:03:38.782Z,0.60
2022-07-26T09:06:15.820Z,1.00
2022-07-26T09:08:47.261Z,0.63
2022-07-26T09:11:32.061Z,0.70
2022-07-26T09:14:02.993Z,0.52
2022-07-26T09:16:34.966Z,0.60
2022-07-26T09:19:19.140Z,0.57
2022-07-26T09:21:47.502Z,0.80
2022-07-26T09:24:32.799Z,0.63
2022-07-26T09:27:04.918Z,0.60
2022-07-26T09:29:44.872Z,0.50
2022-07-26T09:32:19.543Z,0.70
2022-07-26T09:34:53.467Z,0.80
2022-07-26T09:37:35.925Z,0.63
2022-07-26T09:40:08.462Z,0.70
2022-07-26T09:42:37.052Z,0.43
2022-07-26T09:45:16.784Z,0.63
2022-07-26T09:47:44.587Z,0.50
2022-07-26T09:50:17.908Z,0.60
2022-07-26T09:53:03.727Z,0.65
2022-07-26T09:55:42.544Z,0.70
2022-07-26T09:58:14.055Z,0.50
2022-07-26T10:00:42.394Z,0.70
2022-07-26T10:03:10.631Z,0.43
2022-07-26T10:05:38.895Z,0.60
2022-07-26T10:08:08.357Z,0.70
2022-07-26T10:10:45.705Z,0.55
2022-07-26T10:13:13.959Z,0.70
2022-07-26T10:15:46.962Z,0.63
2022-07-26T10:18:47.341Z,0.65
2022-07-26T10:21:23.497Z,0.70
2022-07-26T10:23:53.224Z,0.50
2022-07-26T10:26:42.123Z,0.80
2022-07-26T10:29:26.102Z,0.55
2022-07-26T10:32:20.099Z,0.60
2022-07-26T10:34:48.762Z,0.63
2022-07-26T10:37:28.214Z,0.65
2022-07-26T10:40:22.839Z,0.75
2022-07-26T10:42:52.150Z,0.50
2022-07-26T10:45:24.101Z,0.50
2022-07-26T10:48:13.980Z,0.63
2022-07-26T10:50:43.306Z,0.40
2022-07-26T10:53:17.592Z,0.75
2022-07-26T10:55:54.448Z,0.50
2022-07-26T10:58:25.842Z,0.68
2022-07-26T11:00:59.867Z,0.98
2022-07-26T11:03:39.054Z,0.73
2022-07-26T11:06:13.607Z,0.60
2022-07-26T11:08:45.971Z,0.60
2022-07-26T11:11:27.808Z,0.75
2022-07-26T11:14:06.990Z,0.60
2022-07-26T11:16:50.917Z,0.68
2022-07-26T11:19:21.723Z,0.60
2022-07-26T11:21:57.083Z,0.73
2022-07-26T11:24:26.472Z,0.80
2022-07-26T11:26:55.318Z,0.80
2022-07-26T11:29:40.723Z,0.50
2022-07-26T11:32:19.048Z,0.63
2022-07-26T11:34:48.159Z,0.57
2022-07-26T11:37:16.182Z,0.50
2022-07-26T11:39:43.974Z,0.52
2022-07-26T11:42:16.195Z,0.63
2022-07-26T11:44:47.975Z,0.70
2022-07-26T11:47:20.168Z,0.60
2022-07-26T11:50:00.263Z,0.50
2022-07-26T11:52:32.046Z,0.60
2022-07-26T11:55:01.053Z,0.70
2022-07-26T11:57:30.684Z,0.63
2022-07-26T12:00:01.507Z,0.60
2022-07-26T12:05:16.441Z,0.35
2022-07-26T12:08:04.224Z,0.45
2022-07-26T12:10:32.456Z,0.60
2022-07-26T12:13:12.772Z,0.60
2022-07-26T12:15:53.692Z,0.52
2022-07-26T12:18:26.989Z,0.85
2022-07-26T12:21:05.021Z,0.65
2022-07-26T12:23:46.285Z,0.57
2022-07-26T12:26:31.516Z,0.60
2022-07-26T12:29:21.883Z,0.50
2022-07-26T12:32:11.830Z,0.50
2022-07-26T12:34:43.988Z,0.30
2022-07-26T12:37:18.280Z,0.47
2022-07-26T12:40:03.045Z,0.63
2022-07-26T12:42:37.353Z,0.50
2022-07-26T12:45:11.791Z,0.60
2022-07-26T12:47:49.993Z,0.40
2022-07-26T12:50:27.953Z,0.75
2022-07-26T12:53:09.412Z,0.50
2022-07-26T12:55:40.922Z,0.55
2022-07-26T12:58:10.027Z,0.47
2022-07-26T13:00:37.796Z,0.50
2022-07-26T13:03:06.971Z,0.60
2022-07-26T13:05:34.994Z,0.57
2022-07-26T13:08:02.830Z,0.70
2022-07-26T13:10:33.691Z,0.60
2022-07-26T13:13:03.737Z,0.60
2022-07-26T13:15:35.109Z,0.55
2022-07-26T13:18:09.235Z,0.52
2022-07-26T13:20:39.222Z,0.50
2022-07-26T13:23:09.794Z,0.45
2022-07-26T13:25:40.825Z,0.38
2022-07-26T13:28:09.838Z,0.60
2022-07-26T13:30:43.015Z,0.40
2022-07-26T13:33:12.639Z,0.50
2022-07-26T13:35:42.728Z,0.80
2022-07-26T13:38:11.121Z,0.85
2022-07-26T13:40:39.525Z,0.47
2022-07-26T13:43:07.354Z,0.63
2022-07-26T13:45:35.333Z,0.47
2022-07-26T13:48:03.340Z,0.40
2022-07-26T13:50:32.681Z,0.50
2022-07-26T13:53:00.921Z,0.52
2022-07-26T13:55:28.733Z,0.50
2022-07-26T13:57:58.132Z,0.70
2022-07-26T14:00:27.186Z,0.70
2022-07-26T14:02:56.003Z,0.70
2022-07-26T14:05:24.128Z,0.45
2022-07-26T14:07:53.715Z,0.50
2022-07-26T14:10:22.567Z,0.50
2022-07-26T14:12:50.538Z,0.40
2022-07-26T14:15:22.680Z,0.60
2022-07-26T14:17:52.288Z,0.63
2022-07-26T14:20:20.739Z,0.43
2022-07-26T14:22:48.978Z,0.55
2022-07-26T14:25:18.225Z,0.50
2022-07-26T14:27:46.126Z,0.40
2022-07-26T14:30:15.201Z,0.35
2022-07-26T14:32:43.244Z,0.50
2022-07-26T14:35:11.857Z,0.50
2022-07-26T14:37:43.809Z,0.40
2022-07-26T14:40:17.013Z,0.60
2022-07-26T14:42:47.405Z,0.60
2022-07-26T14:45:16.893Z,0.70
2022-07-26T14:47:45.442Z,0.45
2022-07-26T14:50:15.225Z,0.40
2022-07-26T14:52:45.857Z,0.40
2022-07-26T14:57:43.052Z,0.43
2022-07-26T15:00:16.980Z,0.40
2022-07-26T15:02:48.868Z,0.38
2022-07-26T15:05:19.470Z,0.47
2022-07-26T15:07:47.988Z,0.38
2022-07-26T15:10:17.160Z,0.70
2022-07-26T15:12:45.422Z,0.63
2022-07-26T15:15:15.702Z,0.50
2022-07-26T15:17:44.258Z,0.50
2022-07-26T15:20:18.745Z,0.30
2022-07-26T15:22:48.241Z,0.43
2022-07-26T15:25:16.767Z,0.40
2022-07-26T15:27:46.220Z,0.60
2022-07-26T15:30:15.999Z,0.50
2022-07-26T15:32:45.821Z,0.30
2022-07-26T15:35:16.057Z,0.40
2022-07-26T15:37:44.756Z,0.80
2022-07-26T15:40:14.062Z,0.50
2022-07-26T15:42:44.394Z,0.45
2022-07-26T15:45:15.964Z,0.50
2022-07-26T15:47:54.956Z,0.38
2022-07-26T15:50:23.973Z,0.50
2022-07-26T15:52:52.194Z,0.52
2022-07-26T15:55:21.188Z,0.40
2022-07-26T15:57:49.329Z,0.50
2022-07-26T16:00:19.555Z,0.40
2022-07-26T16:02:47.786Z,0.30
2022-07-26T16:05:15.958Z,0.40
2022-07-26T16:07:47.824Z,0.52
2022-07-26T16:10:19.647Z,0.47
2022-07-26T16:12:48.257Z,0.43
2022-07-26T16:15:16.150Z,0.45
2022-07-26T16:17:45.236Z,0.50
2022-07-26T16:20:13.523Z,0.50
2022-07-26T16:22:42.066Z,0.40
2022-07-26T16:25:13.196Z,0.30
2022-07-26T16:27:42.717Z,0.40
2022-07-26T16:30:12.739Z,0.40
2022-07-26T16:32:40.853Z,0.30
2022-07-26T16:35:11.265Z,0.50
2022-07-26T16:37:40.021Z,0.40
2022-07-26T16:40:10.358Z,0.30
2022-07-26T16:42:38.394Z,0.30
2022-07-26T16:45:08.730Z,0.40
2022-07-26T16:47:36.582Z,0.50
2022-07-26T16:50:05.077Z,0.35
2022-07-26T16:52:34.840Z,0.50
2022-07-26T16:55:07.621Z,0.50
2022-07-26T16:57:35.799Z,0.40
2022-07-26T17:00:05.442Z,0.45
2022-07-26T17:02:33.955Z,0.40
2022-07-26T17:05:02.833Z,0.40
2022-07-26T17:07:32.144Z,0.50
2022-07-26T17:10:01.533Z,0.68
2022-07-26T17:12:30.189Z,0.40
2022-07-26T17:14:58.544Z,0.40
2022-07-26T17:17:27.431Z,0.40
2022-07-26T17:19:56.070Z,0.35
2022-07-26T17:22:24.850Z,0.40
2022-07-26T17:24:52.956Z,0.60
2022-07-26T17:27:22.022Z,0.40
2022-07-26T17:29:52.111Z,0.40
2022-07-26T17:32:20.653Z,0.70
2022-07-26T17:34:55.941Z,0.52
2022-07-26T17:37:23.831Z,0.55
2022-07-26T17:39:53.522Z,0.60
2022-07-26T17:42:23.729Z,0.50
2022-07-26T17:44:52.565Z,0.65
2022-07-26T17:47:29.292Z,0.40
2022-07-26T17:52:48.667Z,0.30
2022-07-26T17:55:18.363Z,0.57
2022-07-26T17:57:48.386Z,0.40
2022-07-26T18:00:19.220Z,0.40
2022-07-26T18:02:47.807Z,0.40
2022-07-26T18:05:18.345Z,0.30
2022-07-26T18:10:14.724Z,0.40
2022-07-26T18:12:43.271Z,0.55
2022-07-26T18:15:13.456Z,0.40
2022-07-26T18:17:41.545Z,0.40
2022-07-26T18:20:11.914Z,0.40
2022-07-26T18:22:40.525Z,0.30
2022-07-26T18:25:09.322Z,0.40
2022-07-26T18:27:37.632Z,0.35
2022-07-26T18:30:07.621Z,0.40
2022-07-26T18:32:36.903Z,0.40
2022-07-26T18:35:06.050Z,0.35
2022-07-26T18:37:34.073Z,0.50
2022-07-26T18:40:01.886Z,0.32
2022-07-26T18:42:30.854Z,0.50
2022-07-26T18:44:58.851Z,0.40
2022-07-26T18:47:26.640Z,0.50
2022-07-26T18:49:55.685Z,0.40
2022-07-26T18:52:31.735Z,0.43
2022-07-26T18:55:06.657Z,0.40
2022-07-26T18:57:35.427Z,0.60
2022-07-26T19:00:03.755Z,0.40
2022-07-26T19:02:31.457Z,0.98
2022-07-26T19:05:00.975Z,0.57
2022-07-26T19:07:28.810Z,0.47
2022-07-26T19:09:58.715Z,0.60
2022-07-26T19:12:28.316Z,0.57
2022-07-26T19:14:56.473Z,0.40
2022-07-26T19:17:24.328Z,0.52
2022-07-26T19:19:52.082Z,0.90
2022-07-26T19:22:21.855Z,0.45
2022-07-26T19:24:50.157Z,0.60
2022-07-26T19:27:18.722Z,0.40
2022-07-26T19:29:46.621Z,0.50
2022-07-26T19:32:14.611Z,0.50
2022-07-26T19:34:42.667Z,0.47
2022-07-26T19:37:10.462Z,0.30
2022-07-26T19:39:39.754Z,0.43
2022-07-26T19:42:07.927Z,0.30
2022-07-26T19:44:37.105Z,0.60
2022-07-26T19:47:05.124Z,0.60
2022-07-26T19:49:33.162Z,0.50
2022-07-26T19:52:01.059Z,0.40
2022-07-26T19:54:29.316Z,0.60
2022-07-26T19:56:58.579Z,0.40
2022-07-26T19:59:26.635Z,0.38
2022-07-26T20:01:56.585Z,0.30
2022-07-26T20:04:26.342Z,0.50
2022-07-26T20:06:55.220Z,0.50
2022-07-26T20:09:23.357Z,0.38
2022-07-26T20:11:51.824Z,0.60
2022-07-26T20:14:22.061Z,0.50
2022-07-26T20:16:55.796Z,0.40
2022-07-26T20:19:26.775Z,0.40
2022-07-26T20:21:54.866Z,0.50
2022-07-26T20:24:22.913Z,0.40
2022-07-26T20:26:50.838Z,0.45
2022-07-26T20:29:20.435Z,0.43
2022-07-26T20:31:48.585Z,0.45
2022-07-26T20:34:16.778Z,0.40
2022-07-26T20:36:44.935Z,0.50
2022-07-26T20:39:15.086Z,0.60
2022-07-26T20:41:58.465Z,0.52
2022-07-26T20:44:30.738Z,0.47
2022-07-26T20:47:00.281Z,0.60
2022-07-26T20:49:28.722Z,0.57
2022-07-26T20:51:58.311Z,0.35
2022-07-26T20:54:26.709Z,0.73
2022-07-26T20:56:56.099Z,0.60
2022-07-26T20:59:24.740Z,0.40
2022-07-26T21:01:54.397Z,0.30
2022-07-26T21:04:22.590Z,0.70
2022-07-26T21:06:54.780Z,0.70
2022-07-26T21:09:27.078Z,0.85
2022-07-26T21:11:55.650Z,0.43
2022-07-26T21:14:24.259Z,0.40
2022-07-26T21:16:54.090Z,0.30
2022-07-26T21:19:22.196Z,0.63
2022-07-26T21:21:50.580Z,0.50
2022-07-26T21:24:20.366Z,0.40
2022-07-26T21:26:48.615Z,0.40
2022-07-26T21:29:16.561Z,0.40
2022-07-26T21:31:44.583Z,0.40
2022-07-26T21:34:14.354Z,0.43
2022-07-26T21:36:42.404Z,0.50
2022-07-26T21:39:11.016Z,0.30
2022-07-26T21:41:40.248Z,0.50
2022-07-26T21:44:08.030Z,0.57
2022-07-26T21:46:35.899Z,0.43
2022-07-26T21:49:04.448Z,0.60
2022-07-26T21:51:34.105Z,0.50
2022-07-26T21:54:01.986Z,0.35
2022-07-26T21:56:30.972Z,0.60
2022-07-26T21:59:01.595Z,0.35
2022-07-26T22:01:29.736Z,0.60
2022-07-26T22:03:57.709Z,0.50
2022-07-26T22:06:26.013Z,0.60
2022-07-26T22:08:55.337Z,0.50
2022-07-26T22:11:23.262Z,0.60
2022-07-26T22:13:51.557Z,0.40
2022-07-26T22:16:19.600Z,0.47
2022-07-26T22:18:47.739Z,0.82
2022-07-26T22:21:15.751Z,0.63
2022-07-26T22:23:43.846Z,0.52
2022-07-26T22:26:15.961Z,0.70
2022-07-26T22:28:44.194Z,0.47
2022-07-26T22:31:12.285Z,0.50
2022-07-26T22:33:40.036Z,0.40
2022-07-26T22:36:10.150Z,0.50
2022-07-26T22:38:38.537Z,0.60
2022-07-26T22:41:06.405Z,0.40
2022-07-26T22:43:35.813Z,0.45
2022-07-26T22:46:03.688Z,0.63
2022-07-26T22:48:34.740Z,0.40
2022-07-26T22:51:05.735Z,0.50
2022-07-26T22:53:33.769Z,0.50
2022-07-26T22:56:01.726Z,0.30
2022-07-26T22:58:29.887Z,0.60
2022-07-26T23:01:00.195Z,0.52
2022-07-26T23:03:28.073Z,0.60
2022-07-26T23:05:57.830Z,0.40
2022-07-26T23:08:46.526Z,0.55
2022-07-26T23:11:15.111Z,0.40
2022-07-26T23:13:43.154Z,0.57
2022-07-26T23:16:12.779Z,0.40
2022-07-26T23:18:40.971Z,0.40
2022-07-26T23:21:09.038Z,0.50
2022-07-26T23:23:36.836Z,0.60
2022-07-26T23:26:04.707Z,0.52
2022-07-26T23:28:37.565Z,0.75
2022-07-26T23:31:11.602Z,0.68
2022-07-26T23:33:52.971Z,0.50
2022-07-26T23:36:24.817Z,0.55
2022-07-26T23:38:53.262Z,0.60
2022-07-26T23:41:21.471Z,0.63
2022-07-26T23:43:49.771Z,0.40
2022-07-26T23:46:17.901Z,0.80
2022-07-26T23:48:47.830Z,0.50
2022-07-26T23:51:15.880Z,0.50
2022-07-26T23:53:44.065Z,0.60
2022-07-26T23:56:11.882Z,0.63
2022-07-26T23:58:39.809Z,0.50
